createdAt,value
2022-09-12T00:00:32.116Z,9.500000000000057
2022-09-12T00:01:32.150Z,9.500000000000057
2022-09-12T00:02:32.145Z,9.500000000000057
2022-09-12T00:03:32.092Z,9.500000000000057
2022-09-12T00:04:32.102Z,9.500000000000057
2022-09-12T00:05:32.102Z,9.388888888888914
2022-09-12T00:06:32.102Z,9.388888888888914
2022-09-12T00:07:32.093Z,9.388888888888914
2022-09-12T00:08:32.083Z,9.388888888888914
2022-09-12T00:09:32.078Z,9.388888888888914
2022-09-12T00:10:32.086Z,9.388888888888914
2022-09-12T00:11:32.101Z,9.388888888888914
2022-09-12T00:12:32.086Z,9.388888888888914
2022-09-12T00:13:32.196Z,9.388888888888914
2022-09-12T00:14:32.108Z,9.388888888888914
2022-09-12T00:15:32.179Z,9.388888888888914
2022-09-12T00:16:32.125Z,9.388888888888914
2022-09-12T00:17:32.138Z,9.388888888888914
2022-09-12T00:18:32.095Z,9.388888888888914
2022-09-12T00:19:32.113Z,9.388888888888914
2022-09-12T00:20:32.236Z,9.277777777777828
2022-09-12T00:21:32.090Z,9.277777777777828
2022-09-12T00:22:32.097Z,9.277777777777828
2022-09-12T00:23:32.079Z,9.277777777777828
2022-09-12T00:24:32.072Z,9.277777777777828
2022-09-12T00:25:32.091Z,9.277777777777828
2022-09-12T00:26:32.107Z,9.277777777777828
2022-09-12T00:27:32.085Z,9.277777777777828
2022-09-12T00:28:32.138Z,9.222222222222285
2022-09-12T00:29:32.071Z,9.222222222222285
2022-09-12T00:30:32.103Z,9.222222222222285
2022-09-12T00:31:32.161Z,9.222222222222285
2022-09-12T00:32:32.122Z,9.111111111111143
2022-09-12T00:33:32.095Z,9.111111111111143
2022-09-12T00:34:32.100Z,9.111111111111143
2022-09-12T00:35:32.089Z,9.111111111111143
2022-09-12T00:36:32.097Z,9.111111111111143
2022-09-12T00:37:32.241Z,9.000000000000057
2022-09-12T00:38:32.104Z,9.000000000000057
2022-09-12T00:39:32.087Z,9.000000000000057
2022-09-12T00:40:32.098Z,9.000000000000057
2022-09-12T00:41:32.087Z,9.000000000000057
2022-09-12T00:42:32.093Z,9.000000000000057
2022-09-12T00:43:32.057Z,9.000000000000057
2022-09-12T00:44:32.106Z,9.000000000000057
2022-09-12T00:45:32.133Z,9.000000000000057
2022-09-12T00:46:32.095Z,9.000000000000057
2022-09-12T00:47:32.070Z,8.888888888888914
2022-09-12T00:48:32.260Z,8.888888888888914
2022-09-12T00:49:32.094Z,8.888888888888914
2022-09-12T00:50:32.101Z,8.888888888888914
2022-09-12T00:51:32.097Z,8.888888888888914
2022-09-12T00:52:32.076Z,8.777777777777828
2022-09-12T00:53:32.137Z,8.777777777777828
2022-09-12T00:54:32.116Z,8.777777777777828
2022-09-12T00:55:32.093Z,8.777777777777828
2022-09-12T00:56:32.099Z,8.777777777777828
2022-09-12T00:57:32.220Z,8.777777777777828
2022-09-12T00:58:32.099Z,8.777777777777828
2022-09-12T00:59:32.081Z,8.777777777777828
2022-09-12T01:00:32.111Z,8.777777777777828
2022-09-12T01:01:32.726Z,8.777777777777828
2022-09-12T01:02:32.092Z,8.777777777777828
2022-09-12T01:03:32.077Z,8.777777777777828
2022-09-12T01:04:32.122Z,8.777777777777828
2022-09-12T01:05:32.075Z,8.777777777777828
2022-09-12T01:06:32.053Z,8.777777777777828
2022-09-12T01:07:32.089Z,8.777777777777828
2022-09-12T01:08:32.120Z,8.777777777777828
2022-09-12T01:09:32.055Z,8.722222222222285
2022-09-12T01:10:32.111Z,8.722222222222285
2022-09-12T01:11:32.075Z,8.611111111111143
2022-09-12T01:12:32.096Z,8.611111111111143
2022-09-12T01:13:32.086Z,8.611111111111143
2022-09-12T01:14:32.093Z,8.611111111111143
2022-09-12T01:15:32.085Z,8.611111111111143
2022-09-12T01:16:32.138Z,8.500000000000057
2022-09-12T01:17:32.135Z,8.500000000000057
2022-09-12T01:18:32.109Z,8.500000000000057
2022-09-12T01:19:32.085Z,8.500000000000057
2022-09-12T01:20:32.085Z,8.500000000000057
2022-09-12T01:21:32.119Z,8.388888888888971
2022-09-12T01:22:32.113Z,8.388888888888971
2022-09-12T01:23:32.087Z,8.388888888888971
2022-09-12T01:24:32.117Z,8.388888888888971
2022-09-12T01:25:32.061Z,8.388888888888971
2022-09-12T01:26:32.089Z,8.388888888888971
2022-09-12T01:27:32.095Z,8.388888888888971
2022-09-12T01:28:32.114Z,8.388888888888971
2022-09-12T01:29:32.061Z,8.388888888888971
2022-09-12T01:30:32.084Z,8.277777777777828
2022-09-12T01:31:33.100Z,8.277777777777828
2022-09-12T01:32:32.082Z,8.277777777777828
2022-09-12T01:33:32.070Z,8.277777777777828
2022-09-12T01:34:32.053Z,8.277777777777828
2022-09-12T01:35:32.085Z,8.277777777777828
2022-09-12T01:36:32.082Z,8.277777777777828
2022-09-12T01:37:32.055Z,8.277777777777828
2022-09-12T01:38:32.099Z,8.277777777777828
2022-09-12T01:39:32.104Z,8.388888888888971
2022-09-12T01:40:32.178Z,8.388888888888971
2022-09-12T01:41:32.199Z,8.388888888888971
2022-09-12T01:42:32.256Z,8.388888888888971
2022-09-12T01:43:32.364Z,8.388888888888971
2022-09-12T01:44:32.226Z,8.388888888888971
2022-09-12T01:45:32.301Z,8.388888888888971
2022-09-12T01:46:32.203Z,8.388888888888971
2022-09-12T01:47:32.175Z,8.388888888888971
2022-09-12T01:48:32.135Z,8.388888888888971
2022-09-12T01:49:32.079Z,8.388888888888971
2022-09-12T01:50:32.097Z,8.388888888888971
2022-09-12T01:51:32.105Z,8.388888888888971
2022-09-12T01:52:32.096Z,8.388888888888971
2022-09-12T01:53:32.082Z,8.388888888888971
2022-09-12T01:54:32.105Z,8.388888888888971
2022-09-12T01:55:32.088Z,8.388888888888971
2022-09-12T01:56:32.085Z,8.388888888888971
2022-09-12T01:57:32.048Z,8.388888888888971
2022-09-12T01:58:32.104Z,8.388888888888971
2022-09-12T01:59:32.085Z,8.388888888888971
2022-09-12T02:00:32.068Z,8.388888888888971
2022-09-12T02:01:32.127Z,8.388888888888971
2022-09-12T02:02:32.069Z,8.388888888888971
2022-09-12T02:03:32.135Z,8.388888888888971
2022-09-12T02:04:34.283Z,8.388888888888971
2022-09-12T02:05:32.061Z,8.388888888888971
2022-09-12T02:06:32.089Z,8.388888888888971
2022-09-12T02:07:32.073Z,8.388888888888971
2022-09-12T02:08:32.886Z,8.388888888888971
2022-09-12T02:09:32.086Z,8.500000000000057
2022-09-12T02:10:32.799Z,8.500000000000057
2022-09-12T02:11:32.062Z,8.500000000000057
2022-09-12T02:12:32.090Z,8.388888888888971
2022-09-12T02:13:32.117Z,8.388888888888971
2022-09-12T02:14:32.090Z,8.388888888888971
2022-09-12T02:15:32.064Z,8.388888888888971
2022-09-12T02:16:32.120Z,8.388888888888971
2022-09-12T02:17:32.136Z,8.388888888888971
2022-09-12T02:18:32.100Z,8.388888888888971
2022-09-12T02:19:32.094Z,8.388888888888971
2022-09-12T02:20:47.438Z,8.500000000000057
2022-09-12T02:21:32.109Z,8.500000000000057
2022-09-12T02:22:32.098Z,8.388888888888971
2022-09-12T02:23:32.071Z,8.500000000000057
2022-09-12T02:24:32.068Z,8.500000000000057
2022-09-12T02:25:32.078Z,8.500000000000057
2022-09-12T02:26:32.089Z,8.388888888888971
2022-09-12T02:27:32.072Z,8.388888888888971
2022-09-12T02:28:32.049Z,8.388888888888971
2022-09-12T02:29:32.067Z,8.388888888888971
2022-09-12T02:30:32.132Z,8.388888888888971
2022-09-12T02:31:32.085Z,8.388888888888971
2022-09-12T02:32:32.052Z,8.388888888888971
2022-09-12T02:33:32.081Z,8.388888888888971
2022-09-12T02:34:32.074Z,8.388888888888971
2022-09-12T02:35:32.080Z,8.388888888888971
2022-09-12T02:36:32.084Z,8.388888888888971
2022-09-12T02:37:32.152Z,8.277777777777828
2022-09-12T02:38:32.074Z,8.277777777777828
2022-09-12T02:39:32.072Z,8.277777777777828
2022-09-12T02:40:32.044Z,8.277777777777828
2022-09-12T02:41:32.233Z,8.277777777777828
2022-09-12T02:42:32.086Z,8.277777777777828
2022-09-12T02:43:32.088Z,8.277777777777828
2022-09-12T02:44:32.170Z,8.277777777777828
2022-09-12T02:45:32.138Z,8.277777777777828
2022-09-12T02:46:32.077Z,8.277777777777828
2022-09-12T02:47:32.078Z,8.222222222222285
2022-09-12T02:48:32.075Z,8.222222222222285
2022-09-12T02:49:32.071Z,8.222222222222285
2022-09-12T02:50:32.047Z,8.222222222222285
2022-09-12T02:51:32.073Z,8.222222222222285
2022-09-12T02:52:32.059Z,8.222222222222285
2022-09-12T02:53:32.093Z,8.222222222222285
2022-09-12T02:54:32.086Z,8.111111111111143
2022-09-12T02:55:32.082Z,8.111111111111143
2022-09-12T02:56:32.047Z,8.111111111111143
2022-09-12T02:57:32.067Z,8.111111111111143
2022-09-12T02:58:32.058Z,8.111111111111143
2022-09-12T02:59:32.051Z,8.111111111111143
2022-09-12T03:00:32.107Z,8.111111111111143
2022-09-12T03:01:32.219Z,8.111111111111143
2022-09-12T03:02:32.073Z,8.111111111111143
2022-09-12T03:03:32.084Z,8.111111111111143
2022-09-12T03:04:32.061Z,8.111111111111143
2022-09-12T03:05:32.070Z,8.000000000000057
2022-09-12T03:06:32.089Z,8.000000000000057
2022-09-12T03:07:32.059Z,8.000000000000057
2022-09-12T03:08:32.069Z,8.000000000000057
2022-09-12T03:09:32.084Z,7.888888888888914
2022-09-12T03:10:32.182Z,7.888888888888914
2022-09-12T03:11:32.104Z,7.888888888888914
2022-09-12T03:12:32.164Z,7.888888888888914
2022-09-12T03:13:32.188Z,7.888888888888914
2022-09-12T03:14:32.171Z,7.888888888888914
2022-09-12T03:15:32.187Z,7.888888888888914
2022-09-12T03:16:32.246Z,7.888888888888914
2022-09-12T03:17:32.126Z,7.888888888888914
2022-09-12T03:18:32.178Z,7.888888888888914
2022-09-12T03:19:32.115Z,7.888888888888914
2022-09-12T03:20:32.079Z,7.888888888888914
2022-09-12T03:21:32.216Z,7.888888888888914
2022-09-12T03:22:32.181Z,7.888888888888914
2022-09-12T03:23:32.060Z,7.777777777777828
2022-09-12T03:24:32.234Z,7.888888888888914
2022-09-12T03:25:32.300Z,7.777777777777828
2022-09-12T03:26:32.052Z,7.777777777777828
2022-09-12T03:27:32.130Z,7.777777777777828
2022-09-12T03:28:32.217Z,7.7222222222222285
2022-09-12T03:29:32.201Z,7.7222222222222285
2022-09-12T03:30:32.134Z,7.7222222222222285
2022-09-12T03:31:32.043Z,7.7222222222222285
2022-09-12T03:32:32.061Z,7.611111111111143
2022-09-12T03:33:32.078Z,7.611111111111143
2022-09-12T03:34:32.071Z,7.611111111111143
2022-09-12T03:35:32.050Z,7.611111111111143
2022-09-12T03:36:32.081Z,7.611111111111143
2022-09-12T03:37:32.171Z,7.611111111111143
2022-09-12T03:38:32.065Z,7.611111111111143
2022-09-12T03:39:32.071Z,7.611111111111143
2022-09-12T03:40:32.202Z,7.7222222222222285
2022-09-12T03:41:32.081Z,7.7222222222222285
2022-09-12T03:42:32.154Z,7.7222222222222285
2022-09-12T03:43:32.063Z,7.7222222222222285
2022-09-12T03:44:32.083Z,7.7222222222222285
2022-09-12T03:45:32.156Z,7.7222222222222285
2022-09-12T03:46:32.064Z,7.777777777777828
2022-09-12T03:47:32.061Z,7.777777777777828
2022-09-12T03:48:32.097Z,7.777777777777828
2022-09-12T03:49:32.090Z,7.7222222222222285
2022-09-12T03:50:32.083Z,7.7222222222222285
2022-09-12T03:51:32.045Z,7.7222222222222285
2022-09-12T03:52:32.072Z,7.7222222222222285
2022-09-12T03:53:32.101Z,7.7222222222222285
2022-09-12T03:54:32.056Z,7.611111111111143
2022-09-12T03:55:32.064Z,7.611111111111143
2022-09-12T03:56:32.054Z,7.611111111111143
2022-09-12T03:57:32.086Z,7.611111111111143
2022-09-12T03:58:32.132Z,7.611111111111143
2022-09-12T03:59:32.054Z,7.611111111111143
2022-09-12T04:00:32.085Z,7.611111111111143
2022-09-12T04:01:32.136Z,7.611111111111143
2022-09-12T04:02:32.148Z,7.611111111111143
2022-09-12T04:03:32.053Z,7.611111111111143
2022-09-12T04:04:32.246Z,7.611111111111143
2022-09-12T04:05:32.108Z,7.611111111111143
2022-09-12T04:06:32.120Z,7.611111111111143
2022-09-12T04:07:32.062Z,7.611111111111143
2022-09-12T04:08:32.089Z,7.611111111111143
2022-09-12T04:09:32.040Z,7.611111111111143
2022-09-12T04:10:32.172Z,7.611111111111143
2022-09-12T04:11:32.079Z,7.611111111111143
2022-09-12T04:12:32.063Z,7.611111111111143
2022-09-12T04:13:32.048Z,7.611111111111143
2022-09-12T04:14:32.068Z,7.611111111111143
2022-09-12T04:15:32.089Z,7.611111111111143
2022-09-12T04:16:32.105Z,7.611111111111143
2022-09-12T04:17:32.036Z,7.611111111111143
2022-09-12T04:18:32.067Z,7.611111111111143
2022-09-12T04:19:32.112Z,7.611111111111143
2022-09-12T04:20:32.147Z,7.611111111111143
2022-09-12T04:21:32.045Z,7.611111111111143
2022-09-12T04:22:32.075Z,7.611111111111143
2022-09-12T04:23:32.066Z,7.611111111111143
2022-09-12T04:24:32.089Z,7.611111111111143
2022-09-12T04:25:32.153Z,7.611111111111143
2022-09-12T04:26:32.088Z,7.611111111111143
2022-09-12T04:27:32.065Z,7.611111111111143
2022-09-12T04:28:32.079Z,7.611111111111143
2022-09-12T04:29:32.033Z,7.611111111111143
2022-09-12T04:30:32.150Z,7.611111111111143
2022-09-12T04:31:32.068Z,7.611111111111143
2022-09-12T04:32:32.053Z,7.500000000000057
2022-09-12T04:33:32.037Z,7.500000000000057
2022-09-12T04:34:32.050Z,7.500000000000057
2022-09-12T04:35:32.084Z,7.500000000000057
2022-09-12T04:36:32.081Z,7.500000000000057
2022-09-12T04:37:32.068Z,7.500000000000057
2022-09-12T04:38:32.072Z,7.500000000000057
2022-09-12T04:39:32.131Z,7.500000000000057
2022-09-12T04:40:32.087Z,7.611111111111143
2022-09-12T04:41:32.064Z,7.500000000000057
2022-09-12T04:42:32.212Z,7.611111111111143
2022-09-12T04:43:32.048Z,7.611111111111143
2022-09-12T04:44:32.066Z,7.611111111111143
2022-09-12T04:45:32.122Z,7.611111111111143
2022-09-12T04:46:32.078Z,7.611111111111143
2022-09-12T04:47:32.068Z,7.7222222222222285
2022-09-12T04:48:32.073Z,7.7222222222222285
2022-09-12T04:49:32.089Z,7.7222222222222285
2022-09-12T04:50:32.192Z,7.7222222222222285
2022-09-12T04:51:32.063Z,7.7222222222222285
2022-09-12T04:52:32.100Z,7.777777777777828
2022-09-12T04:53:32.052Z,7.777777777777828
2022-09-12T04:54:32.067Z,7.777777777777828
2022-09-12T04:55:32.075Z,7.777777777777828
2022-09-12T04:56:32.221Z,7.888888888888914
2022-09-12T04:57:32.067Z,7.888888888888914
2022-09-12T04:58:32.076Z,8.000000000000057
2022-09-12T04:59:32.060Z,8.000000000000057
2022-09-12T05:00:32.174Z,8.000000000000057
2022-09-12T05:01:32.103Z,8.000000000000057
2022-09-12T05:02:32.112Z,8.000000000000057
2022-09-12T05:03:32.132Z,8.000000000000057
2022-09-12T05:04:32.039Z,8.111111111111143
2022-09-12T05:05:32.035Z,8.111111111111143
2022-09-12T05:06:32.141Z,8.111111111111143
2022-09-12T05:07:32.168Z,8.111111111111143
2022-09-12T05:08:32.072Z,8.111111111111143
2022-09-12T05:09:32.060Z,8.111111111111143
2022-09-12T05:10:32.067Z,8.222222222222285
2022-09-12T05:11:53.067Z,8.222222222222285
2022-09-12T05:12:32.116Z,8.222222222222285
2022-09-12T05:13:32.057Z,8.222222222222285
2022-09-12T05:14:32.095Z,8.222222222222285
2022-09-12T05:15:32.068Z,8.222222222222285
2022-09-12T05:16:32.273Z,8.277777777777828
2022-09-12T05:17:32.083Z,8.277777777777828
2022-09-12T05:18:32.082Z,8.388888888888971
2022-09-12T05:19:32.076Z,8.500000000000057
2022-09-12T05:20:32.056Z,8.611111111111143
2022-09-12T05:21:32.159Z,8.611111111111143
2022-09-12T05:22:32.071Z,8.611111111111143
2022-09-12T05:23:32.098Z,8.611111111111143
2022-09-12T05:24:32.975Z,8.611111111111143
2022-09-12T05:25:41.331Z,8.722222222222285
2022-09-12T05:26:45.301Z,8.722222222222285
2022-09-12T05:27:50.611Z,8.777777777777828
2022-09-12T05:28:53.314Z,8.888888888888914
2022-09-12T05:29:57.324Z,8.888888888888914
2022-09-12T05:31:01.434Z,8.888888888888914
2022-09-12T05:32:05.309Z,9.000000000000057
2022-09-12T05:33:09.276Z,9.000000000000057
2022-09-12T05:34:13.325Z,9.000000000000057
2022-09-12T05:35:17.525Z,9.111111111111143
2022-09-12T05:36:21.286Z,9.111111111111143
2022-09-12T05:37:25.270Z,9.111111111111143
2022-09-12T05:38:29.532Z,9.222222222222285
2022-09-12T05:39:32.065Z,9.222222222222285
2022-09-12T05:40:32.188Z,9.222222222222285
2022-09-12T05:41:32.085Z,9.222222222222285
2022-09-12T05:42:32.056Z,9.222222222222285
2022-09-12T05:43:32.069Z,9.222222222222285
2022-09-12T05:44:32.061Z,9.277777777777828
2022-09-12T05:45:32.093Z,9.277777777777828
2022-09-12T05:46:32.298Z,9.277777777777828
2022-09-12T05:47:32.051Z,9.277777777777828
2022-09-12T05:48:32.091Z,9.277777777777828
2022-09-12T05:49:32.072Z,9.277777777777828
2022-09-12T05:50:32.066Z,9.388888888888914
2022-09-12T05:51:32.077Z,9.388888888888914
2022-09-12T05:52:32.078Z,9.500000000000057
2022-09-12T05:53:32.037Z,9.611111111111143
2022-09-12T05:54:32.181Z,9.611111111111143
2022-09-12T05:55:32.090Z,9.611111111111143
2022-09-12T05:56:32.063Z,9.722222222222285
2022-09-12T05:57:32.050Z,9.722222222222285
2022-09-12T05:58:32.146Z,9.777777777777828
2022-09-12T05:59:32.066Z,9.777777777777828
2022-09-12T06:00:33.602Z,9.888888888888914
2022-09-12T06:01:32.141Z,9.888888888888914
2022-09-12T06:02:32.159Z,10.000000000000057
2022-09-12T06:03:32.085Z,10.000000000000057
2022-09-12T06:04:32.059Z,10.111111111111143
2022-09-12T06:05:32.077Z,10.111111111111143
2022-09-12T06:06:32.104Z,10.222222222222229
2022-09-12T06:07:32.082Z,10.222222222222229
2022-09-12T06:08:32.075Z,10.222222222222229
2022-09-12T06:09:32.194Z,10.277777777777828
2022-09-12T06:10:32.148Z,10.388888888888914
2022-09-12T06:11:32.089Z,10.500000000000057
2022-09-12T06:12:32.061Z,10.611111111111143
2022-09-12T06:13:32.026Z,10.722222222222285
2022-09-12T06:14:32.058Z,10.777777777777828
2022-09-12T06:15:32.051Z,10.888888888888971
2022-09-12T06:16:32.137Z,10.888888888888971
2022-09-12T06:17:32.051Z,11.000000000000057
2022-09-12T06:18:32.052Z,11.111111111111143
2022-09-12T06:19:32.049Z,11.111111111111143
2022-09-12T06:20:32.062Z,11.111111111111143
2022-09-12T06:21:32.196Z,11.222222222222285
2022-09-12T06:22:32.080Z,11.277777777777828
2022-09-12T06:23:32.071Z,11.388888888888971
2022-09-12T06:24:32.161Z,11.500000000000057
2022-09-12T06:25:32.048Z,11.500000000000057
2022-09-12T06:26:32.137Z,11.500000000000057
2022-09-12T06:27:32.105Z,11.6111111111112
2022-09-12T06:28:32.063Z,11.722222222222229
2022-09-12T06:29:32.034Z,11.722222222222229
2022-09-12T06:30:32.261Z,11.777777777777828
2022-09-12T06:31:32.093Z,11.888888888888971
2022-09-12T06:32:32.144Z,12
2022-09-12T06:33:32.128Z,12
2022-09-12T06:34:32.058Z,12.111111111111143
2022-09-12T06:35:32.044Z,12.111111111111143
2022-09-12T06:36:32.063Z,12.222222222222285
2022-09-12T06:37:32.043Z,12.277777777777828
2022-09-12T06:38:32.046Z,12.388888888888914
2022-09-12T06:39:32.077Z,12.500000000000057
2022-09-12T06:40:32.070Z,12.500000000000057
2022-09-12T06:41:32.043Z,12.611111111111143
2022-09-12T06:42:32.054Z,12.611111111111143
2022-09-12T06:43:32.411Z,12.722222222222285
2022-09-12T06:44:32.105Z,12.777777777777828
2022-09-12T06:45:32.059Z,13.000000000000057
2022-09-12T06:46:32.163Z,13.000000000000057
2022-09-12T06:47:32.052Z,13.111111111111143
2022-09-12T06:48:32.073Z,13.111111111111143
2022-09-12T06:49:32.025Z,13.111111111111143
2022-09-12T06:50:32.047Z,13.222222222222285
2022-09-12T06:51:32.058Z,13.222222222222285
2022-09-12T06:52:32.076Z,13.277777777777828
2022-09-12T06:53:32.057Z,13.6111111111112
2022-09-12T06:54:32.043Z,13.777777777777828
2022-09-12T06:55:32.037Z,13.888888888888971
2022-09-12T06:56:32.039Z,14.000000000000057
2022-09-12T06:57:32.038Z,14.222222222222229
2022-09-12T06:58:32.191Z,14.5
2022-09-12T06:59:32.065Z,14.5
2022-09-12T07:00:32.038Z,14.5
2022-09-12T07:01:32.137Z,14.611111111111143
2022-09-12T07:02:32.095Z,14.722222222222285
2022-09-12T07:03:32.065Z,14.722222222222285
2022-09-12T07:04:32.017Z,14.777777777777828
2022-09-12T07:05:32.053Z,14.777777777777828
2022-09-12T07:06:32.276Z,14.722222222222285
2022-09-12T07:07:32.046Z,14.611111111111143
2022-09-12T07:08:32.068Z,14.611111111111143
2022-09-12T07:09:32.053Z,14.611111111111143
2022-09-12T07:10:32.075Z,14.5
2022-09-12T07:11:32.080Z,14.5
2022-09-12T07:12:32.049Z,14.611111111111143
2022-09-12T07:13:32.062Z,14.777777777777828
2022-09-12T07:14:32.053Z,15.000000000000057
2022-09-12T07:15:32.055Z,15.111111111111143
2022-09-12T07:16:32.215Z,15.277777777777828
2022-09-12T07:17:32.058Z,15.277777777777828
2022-09-12T07:18:32.092Z,15.277777777777828
2022-09-12T07:19:32.048Z,15.277777777777828
2022-09-12T07:20:32.017Z,15.388888888888914
2022-09-12T07:21:32.042Z,15.388888888888914
2022-09-12T07:22:32.104Z,15.277777777777828
2022-09-12T07:23:32.060Z,15.222222222222285
2022-09-12T07:24:32.060Z,15.222222222222285
2022-09-12T07:25:32.212Z,15.388888888888914
2022-09-12T07:26:32.070Z,15.500000000000057
2022-09-12T07:27:32.070Z,15.611111111111143
2022-09-12T07:28:32.065Z,15.777777777777828
2022-09-12T07:29:37.087Z,15.888888888888914
2022-09-12T07:30:32.167Z,16.27777777777783
2022-09-12T07:31:32.077Z,16.6111111111112
2022-09-12T07:32:32.038Z,16.77777777777783
2022-09-12T07:33:32.054Z,17.111111111111143
2022-09-12T07:34:32.034Z,17.500000000000057
2022-09-12T07:35:32.066Z,17.500000000000057
2022-09-12T07:36:32.051Z,17.611111111111143
2022-09-12T07:37:32.085Z,17.722222222222285
2022-09-12T07:38:32.068Z,18.000000000000057
2022-09-12T07:39:32.031Z,18.111111111111143
2022-09-12T07:40:32.059Z,18.222222222222285
2022-09-12T07:41:32.057Z,18.111111111111143
2022-09-12T07:42:32.050Z,17.888888888888914
2022-09-12T07:43:32.079Z,17.888888888888914
2022-09-12T07:44:32.043Z,17.77777777777783
2022-09-12T07:45:32.077Z,17.722222222222285
2022-09-12T07:46:33.103Z,17.500000000000057
2022-09-12T07:47:32.078Z,17.500000000000057
2022-09-12T07:48:32.118Z,17.500000000000057
2022-09-12T07:49:32.114Z,17.500000000000057
2022-09-12T07:50:32.145Z,17.722222222222285
2022-09-12T07:51:32.065Z,17.77777777777783
2022-09-12T07:52:32.063Z,17.888888888888914
2022-09-12T07:53:32.055Z,18.000000000000057
2022-09-12T07:54:32.047Z,18.222222222222285
2022-09-12T07:55:32.059Z,18.222222222222285
2022-09-12T07:56:35.682Z,18.27777777777783
2022-09-12T07:57:32.001Z,18.27777777777783
2022-09-12T07:58:32.136Z,18.222222222222285
2022-09-12T07:59:51.553Z,18.111111111111143
2022-09-12T08:00:32.097Z,18.000000000000057
2022-09-12T08:01:32.109Z,18.000000000000057
2022-09-12T08:02:32.075Z,18.000000000000057
2022-09-12T08:03:32.054Z,18.111111111111143
2022-09-12T08:04:32.062Z,18.222222222222285
2022-09-12T08:05:32.027Z,18.222222222222285
2022-09-12T08:06:32.047Z,18.222222222222285
2022-09-12T08:07:32.072Z,18.111111111111143
2022-09-12T08:08:32.065Z,17.888888888888914
2022-09-12T08:09:32.074Z,18.000000000000057
2022-09-12T08:10:32.125Z,18.388888888888914
2022-09-12T08:11:32.074Z,18.6111111111112
2022-09-12T08:12:32.085Z,18.77777777777783
2022-09-12T08:13:32.047Z,18.77777777777783
2022-09-12T08:14:32.051Z,19.000000000000057
2022-09-12T08:15:32.045Z,19.000000000000057
2022-09-12T08:16:32.106Z,19.1111111111112
2022-09-12T08:17:32.066Z,19.1111111111112
2022-09-12T08:18:32.069Z,19.1111111111112
2022-09-12T08:19:32.035Z,19.1111111111112
2022-09-12T08:20:32.049Z,19.22222222222223
2022-09-12T08:21:32.100Z,19.27777777777783
2022-09-12T08:22:32.048Z,19.38888888888897
2022-09-12T08:23:32.146Z,19.38888888888897
2022-09-12T08:24:32.184Z,19.5
2022-09-12T08:25:32.082Z,19.611111111111143
2022-09-12T08:26:32.067Z,19.611111111111143
2022-09-12T08:27:32.031Z,19.722222222222285
2022-09-12T08:28:32.048Z,19.722222222222285
2022-09-12T08:29:32.129Z,19.611111111111143
2022-09-12T08:30:32.128Z,19.722222222222285
2022-09-12T08:31:33.029Z,19.722222222222285
2022-09-12T08:32:32.060Z,19.722222222222285
2022-09-12T08:33:32.061Z,19.611111111111143
2022-09-12T08:34:32.040Z,19.611111111111143
2022-09-12T08:35:32.017Z,19.722222222222285
2022-09-12T08:36:32.111Z,19.77777777777783
2022-09-12T08:37:32.091Z,19.888888888888914
2022-09-12T08:38:33.135Z,19.888888888888914
2022-09-12T08:39:32.096Z,19.77777777777783
2022-09-12T08:40:32.029Z,19.27777777777783
2022-09-12T08:41:32.030Z,19.1111111111112
2022-09-12T08:42:32.047Z,19.27777777777783
2022-09-12T08:43:32.026Z,19.722222222222285
2022-09-12T08:44:32.130Z,19.77777777777783
2022-09-12T08:45:32.051Z,19.888888888888914
2022-09-12T08:46:32.044Z,19.888888888888914
2022-09-12T08:47:32.034Z,19.888888888888914
2022-09-12T08:48:32.036Z,19.888888888888914
2022-09-12T08:49:32.056Z,19.888888888888914
2022-09-12T08:50:32.040Z,19.77777777777783
2022-09-12T08:51:32.026Z,19.611111111111143
2022-09-12T08:52:32.043Z,19.5
2022-09-12T08:53:32.063Z,19.27777777777783
2022-09-12T08:54:32.038Z,19.22222222222223
2022-09-12T08:55:32.038Z,19.22222222222223
2022-09-12T08:56:32.050Z,19.27777777777783
2022-09-12T08:57:32.087Z,19.611111111111143
2022-09-12T08:58:32.032Z,19.722222222222285
2022-09-12T08:59:32.080Z,19.888888888888914
2022-09-12T09:00:32.058Z,20.000000000000057
2022-09-12T09:01:32.144Z,19.888888888888914
2022-09-12T09:02:32.126Z,19.888888888888914
2022-09-12T09:03:32.066Z,19.888888888888914
2022-09-12T09:04:32.160Z,19.888888888888914
2022-09-12T09:05:32.042Z,19.77777777777783
2022-09-12T09:06:32.041Z,19.77777777777783
2022-09-12T09:07:32.044Z,19.77777777777783
2022-09-12T09:08:32.075Z,19.611111111111143
2022-09-12T09:09:32.016Z,19.611111111111143
2022-09-12T09:10:32.213Z,19.722222222222285
2022-09-12T09:11:32.030Z,19.722222222222285
2022-09-12T09:12:32.089Z,19.722222222222285
2022-09-12T09:13:32.023Z,19.888888888888914
2022-09-12T09:14:32.039Z,20.111111111111143
2022-09-12T09:15:32.047Z,20.111111111111143
2022-09-12T09:16:32.145Z,20.111111111111143